sensor_id;sensor_type;location;lat;lon;timestamp;P1;durP1;ratioP1;P2;durP2;ratioP2
76477;SDS011;65309;49.790;18.972;2023-02-21T00:01:42;3.22;;;1.50;;
76477;SDS011;65309;49.790;18.972;2023-02-21T00:07:03;5.35;;;2.20;;
76477;SDS011;65309;49.790;18.972;2023-02-21T00:12:26;2.63;;;1.77;;
76477;SDS011;65309;49.790;18.972;2023-02-21T00:23:07;3.75;;;1.58;;
76477;SDS011;65309;49.790;18.972;2023-02-21T00:28:29;2.60;;;1.08;;
76477;SDS011;65309;49.790;18.972;2023-02-21T00:33:51;3.15;;;1.83;;
76477;SDS011;65309;49.790;18.972;2023-02-21T00:39:12;3.38;;;2.10;;
76477;SDS011;65309;49.790;18.972;2023-02-21T00:44:34;2.67;;;2.03;;
76477;SDS011;65309;49.790;18.972;2023-02-21T00:55:15;5.00;;;2.05;;
76477;SDS011;65309;49.790;18.972;2023-02-21T01:00:38;2.78;;;2.10;;
76477;SDS011;65309;49.790;18.972;2023-02-21T01:05:58;3.00;;;2.10;;
76477;SDS011;65309;49.790;18.972;2023-02-21T01:11:20;2.58;;;1.90;;
76477;SDS011;65309;49.790;18.972;2023-02-21T01:16:42;3.83;;;2.22;;
76477;SDS011;65309;49.790;18.972;2023-02-21T01:22:13;3.80;;;1.92;;
76477;SDS011;65309;49.790;18.972;2023-02-21T01:27:34;2.17;;;1.52;;
76477;SDS011;65309;49.790;18.972;2023-02-21T01:32:56;2.85;;;1.90;;
76477;SDS011;65309;49.790;18.972;2023-02-21T01:38:17;2.95;;;2.15;;
76477;SDS011;65309;49.790;18.972;2023-02-21T01:43:38;4.15;;;2.55;;
76477;SDS011;65309;49.790;18.972;2023-02-21T01:49:20;6.13;;;1.95;;
76477;SDS011;65309;49.790;18.972;2023-02-21T01:54:42;3.83;;;2.17;;
76477;SDS011;65309;49.790;18.972;2023-02-21T02:00:07;2.90;;;1.83;;
76477;SDS011;65309;49.790;18.972;2023-02-21T02:05:31;4.97;;;2.47;;
76477;SDS011;65309;49.790;18.972;2023-02-21T02:10:55;5.57;;;2.85;;
76477;SDS011;65309;49.790;18.972;2023-02-21T02:16:26;5.35;;;3.22;;
76477;SDS011;65309;49.790;18.972;2023-02-21T02:38:51;6.07;;;1.75;;
76477;SDS011;65309;49.790;18.972;2023-02-21T02:43:58;3.67;;;2.15;;
76477;SDS011;65309;49.790;18.972;2023-02-21T02:49:07;2.40;;;1.33;;
76477;SDS011;65309;49.790;18.972;2023-02-21T02:54:14;2.97;;;2.00;;
76477;SDS011;65309;49.790;18.972;2023-02-21T02:59:17;3.78;;;1.08;;
76477;SDS011;65309;49.790;18.972;2023-02-21T03:04:27;2.75;;;1.50;;
76477;SDS011;65309;49.790;18.972;2023-02-21T03:09:44;6.20;;;2.42;;
76477;SDS011;65309;49.790;18.972;2023-02-21T03:14:54;3.90;;;2.47;;
76477;SDS011;65309;49.790;18.972;2023-02-21T03:20:03;3.90;;;1.80;;
76477;SDS011;65309;49.790;18.972;2023-02-21T03:25:08;4.45;;;2.15;;
76477;SDS011;65309;49.790;18.972;2023-02-21T03:30:12;4.57;;;2.65;;
76477;SDS011;65309;49.790;18.972;2023-02-21T03:35:15;5.60;;;2.10;;
76477;SDS011;65309;49.790;18.972;2023-02-21T03:40:20;4.22;;;2.53;;
76477;SDS011;65309;49.790;18.972;2023-02-21T03:45:24;5.15;;;2.53;;
76477;SDS011;65309;49.790;18.972;2023-02-21T03:50:26;3.25;;;1.77;;
76477;SDS011;65309;49.790;18.972;2023-02-21T03:55:30;2.88;;;1.83;;
76477;SDS011;65309;49.790;18.972;2023-02-21T04:05:33;1.30;;;1.08;;
76477;SDS011;65309;49.790;18.972;2023-02-21T04:10:37;4.10;;;1.75;;
76477;SDS011;65309;49.790;18.972;2023-02-21T04:15:53;10.27;;;1.50;;
76477;SDS011;65309;49.790;18.972;2023-02-21T04:20:55;2.55;;;1.55;;
76477;SDS011;65309;49.790;18.972;2023-02-21T04:25:58;2.45;;;1.77;;
76477;SDS011;65309;49.790;18.972;2023-02-21T04:36:02;5.65;;;2.30;;
76477;SDS011;65309;49.790;18.972;2023-02-21T04:41:05;3.50;;;2.50;;
76477;SDS011;65309;49.790;18.972;2023-02-21T04:46:08;3.40;;;2.45;;
76477;SDS011;65309;49.790;18.972;2023-02-21T04:51:10;3.40;;;2.53;;
76477;SDS011;65309;49.790;18.972;2023-02-21T04:56:18;3.78;;;2.65;;
76477;SDS011;65309;49.790;18.972;2023-02-21T05:01:21;3.13;;;2.15;;
76477;SDS011;65309;49.790;18.972;2023-02-21T05:06:27;6.13;;;3.03;;
76477;SDS011;65309;49.790;18.972;2023-02-21T05:11:32;17.10;;;6.20;;
76477;SDS011;65309;49.790;18.972;2023-02-21T05:16:36;19.15;;;8.70;;
76477;SDS011;65309;49.790;18.972;2023-02-21T05:21:38;7.13;;;4.25;;
76477;SDS011;65309;49.790;18.972;2023-02-21T05:26:41;3.80;;;2.53;;
76477;SDS011;65309;49.790;18.972;2023-02-21T05:31:43;4.80;;;3.35;;
76477;SDS011;65309;49.790;18.972;2023-02-21T05:36:46;2.33;;;1.73;;
76477;SDS011;65309;49.790;18.972;2023-02-21T05:41:49;5.80;;;3.40;;
76477;SDS011;65309;49.790;18.972;2023-02-21T05:46:52;4.40;;;2.72;;
76477;SDS011;65309;49.790;18.972;2023-02-21T05:51:54;2.78;;;2.30;;
76477;SDS011;65309;49.790;18.972;2023-02-21T05:56:57;3.40;;;2.17;;
76477;SDS011;65309;49.790;18.972;2023-02-21T06:07:02;4.55;;;2.10;;
76477;SDS011;65309;49.790;18.972;2023-02-21T06:12:05;3.05;;;1.90;;
76477;SDS011;65309;49.790;18.972;2023-02-21T06:17:07;5.57;;;2.78;;
76477;SDS011;65309;49.790;18.972;2023-02-21T06:22:09;2.97;;;2.22;;
76477;SDS011;65309;49.790;18.972;2023-02-21T06:27:13;6.18;;;2.50;;
76477;SDS011;65309;49.790;18.972;2023-02-21T06:32:16;5.47;;;2.22;;
76477;SDS011;65309;49.790;18.972;2023-02-21T06:37:18;3.78;;;2.92;;
76477;SDS011;65309;49.790;18.972;2023-02-21T06:42:21;2.50;;;2.25;;
76477;SDS011;65309;49.790;18.972;2023-02-21T06:52:25;5.18;;;2.90;;
76477;SDS011;65309;49.790;18.972;2023-02-21T06:57:28;6.57;;;3.15;;
76477;SDS011;65309;49.790;18.972;2023-02-21T07:07:32;2.63;;;1.58;;
76477;SDS011;65309;49.790;18.972;2023-02-21T07:12:36;4.65;;;3.03;;
76477;SDS011;65309;49.790;18.972;2023-02-21T07:17:38;11.63;;;3.17;;
76477;SDS011;65309;49.790;18.972;2023-02-21T07:22:40;5.20;;;3.30;;
76477;SDS011;65309;49.790;18.972;2023-02-21T07:27:43;3.42;;;2.03;;
76477;SDS011;65309;49.790;18.972;2023-02-21T07:32:47;4.78;;;2.33;;
76477;SDS011;65309;49.790;18.972;2023-02-21T07:37:49;5.65;;;3.00;;
76477;SDS011;65309;49.790;18.972;2023-02-21T07:42:52;3.78;;;2.10;;
76477;SDS011;65309;49.790;18.972;2023-02-21T07:47:54;2.78;;;1.92;;
76477;SDS011;65309;49.790;18.972;2023-02-21T07:52:56;5.15;;;3.60;;
76477;SDS011;65309;49.790;18.972;2023-02-21T07:58:01;5.22;;;3.30;;
76477;SDS011;65309;49.790;18.972;2023-02-21T08:03:04;5.32;;;3.13;;
76477;SDS011;65309;49.790;18.972;2023-02-21T08:08:06;7.40;;;3.38;;
76477;SDS011;65309;49.790;18.972;2023-02-21T08:13:10;8.20;;;4.65;;
76477;SDS011;65309;49.790;18.972;2023-02-21T08:18:13;5.75;;;3.30;;
76477;SDS011;65309;49.790;18.972;2023-02-21T08:23:19;10.73;;;4.22;;
76477;SDS011;65309;49.790;18.972;2023-02-21T08:28:23;6.82;;;4.93;;
76477;SDS011;65309;49.790;18.972;2023-02-21T08:33:25;6.13;;;4.80;;
76477;SDS011;65309;49.790;18.972;2023-02-21T08:38:27;5.53;;;4.00;;
76477;SDS011;65309;49.790;18.972;2023-02-21T08:43:31;7.30;;;3.72;;
76477;SDS011;65309;49.790;18.972;2023-02-21T08:53:34;5.53;;;3.10;;
76477;SDS011;65309;49.790;18.972;2023-02-21T08:58:38;7.60;;;4.55;;
76477;SDS011;65309;49.790;18.972;2023-02-21T09:08:42;6.10;;;4.55;;
76477;SDS011;65309;49.790;18.972;2023-02-21T09:13:45;6.68;;;3.80;;
76477;SDS011;65309;49.790;18.972;2023-02-21T09:23:56;6.75;;;4.75;;
76477;SDS011;65309;49.790;18.972;2023-02-21T09:34:03;5.57;;;4.47;;
76477;SDS011;65309;49.790;18.972;2023-02-21T09:39:05;5.38;;;3.10;;
76477;SDS011;65309;49.790;18.972;2023-02-21T09:44:11;3.58;;;2.88;;
76477;SDS011;65309;49.790;18.972;2023-02-21T09:54:23;8.15;;;3.38;;
76477;SDS011;65309;49.790;18.972;2023-02-21T09:59:28;3.78;;;3.33;;
76477;SDS011;65309;49.790;18.972;2023-02-21T10:04:33;9.38;;;2.63;;
76477;SDS011;65309;49.790;18.972;2023-02-21T10:09:44;5.22;;;4.18;;
76477;SDS011;65309;49.790;18.972;2023-02-21T10:15:00;2.83;;;2.22;;
76477;SDS011;65309;49.790;18.972;2023-02-21T10:20:20;4.32;;;2.63;;
76477;SDS011;65309;49.790;18.972;2023-02-21T10:25:29;4.00;;;3.30;;
76477;SDS011;65309;49.790;18.972;2023-02-21T10:30:34;5.72;;;2.88;;
76477;SDS011;65309;49.790;18.972;2023-02-21T10:35:38;6.30;;;3.72;;
76477;SDS011;65309;49.790;18.972;2023-02-21T10:40:41;5.38;;;4.72;;
76477;SDS011;65309;49.790;18.972;2023-02-21T10:45:46;6.10;;;3.67;;
76477;SDS011;65309;49.790;18.972;2023-02-21T10:51:03;4.45;;;3.40;;
76477;SDS011;65309;49.790;18.972;2023-02-21T10:56:21;3.42;;;3.13;;
76477;SDS011;65309;49.790;18.972;2023-02-21T11:01:32;2.47;;;1.95;;
76477;SDS011;65309;49.790;18.972;2023-02-21T11:06:37;4.03;;;3.33;;
76477;SDS011;65309;49.790;18.972;2023-02-21T11:11:45;3.67;;;2.67;;
76477;SDS011;65309;49.790;18.972;2023-02-21T11:17:04;5.38;;;3.35;;
76477;SDS011;65309;49.790;18.972;2023-02-21T11:22:14;6.05;;;3.53;;
76477;SDS011;65309;49.790;18.972;2023-02-21T11:27:19;4.38;;;3.47;;
76477;SDS011;65309;49.790;18.972;2023-02-21T11:32:24;4.75;;;2.85;;
76477;SDS011;65309;49.790;18.972;2023-02-21T11:37:29;3.60;;;2.70;;
76477;SDS011;65309;49.790;18.972;2023-02-21T11:42:32;4.70;;;2.83;;
76477;SDS011;65309;49.790;18.972;2023-02-21T11:47:37;4.80;;;3.00;;
76477;SDS011;65309;49.790;18.972;2023-02-21T11:52:48;4.35;;;3.10;;
76477;SDS011;65309;49.790;18.972;2023-02-21T11:57:56;4.93;;;3.42;;
76477;SDS011;65309;49.790;18.972;2023-02-21T12:03:12;5.72;;;3.40;;
76477;SDS011;65309;49.790;18.972;2023-02-21T12:13:49;4.63;;;3.20;;
76477;SDS011;65309;49.790;18.972;2023-02-21T12:19:06;4.78;;;3.08;;
76477;SDS011;65309;49.790;18.972;2023-02-21T12:24:23;5.07;;;2.65;;
76477;SDS011;65309;49.790;18.972;2023-02-21T12:29:41;5.38;;;2.58;;
76477;SDS011;65309;49.790;18.972;2023-02-21T12:34:57;5.82;;;3.85;;
76477;SDS011;65309;49.790;18.972;2023-02-21T12:40:13;4.60;;;2.35;;
76477;SDS011;65309;49.790;18.972;2023-02-21T12:45:24;4.43;;;3.10;;
76477;SDS011;65309;49.790;18.972;2023-02-21T12:50:40;3.78;;;3.00;;
76477;SDS011;65309;49.790;18.972;2023-02-21T12:55:46;2.58;;;1.90;;
76477;SDS011;65309;49.790;18.972;2023-02-21T13:00:53;4.03;;;2.15;;
76477;SDS011;65309;49.790;18.972;2023-02-21T13:06:03;4.10;;;2.40;;
76477;SDS011;65309;49.790;18.972;2023-02-21T13:11:11;3.85;;;2.28;;
76477;SDS011;65309;49.790;18.972;2023-02-21T13:16:15;4.07;;;2.65;;
76477;SDS011;65309;49.790;18.972;2023-02-21T13:21:23;4.25;;;2.58;;
76477;SDS011;65309;49.790;18.972;2023-02-21T13:26:40;2.83;;;1.98;;
76477;SDS011;65309;49.790;18.972;2023-02-21T13:31:55;3.65;;;2.40;;
76477;SDS011;65309;49.790;18.972;2023-02-21T13:37:04;4.05;;;2.47;;
76477;SDS011;65309;49.790;18.972;2023-02-21T13:42:09;3.97;;;2.75;;
76477;SDS011;65309;49.790;18.972;2023-02-21T13:47:16;4.10;;;2.88;;
76477;SDS011;65309;49.790;18.972;2023-02-21T13:52:25;5.93;;;3.42;;
76477;SDS011;65309;49.790;18.972;2023-02-21T13:57:52;8.45;;;3.72;;
76477;SDS011;65309;49.790;18.972;2023-02-21T14:03:33;5.75;;;2.60;;
76477;SDS011;65309;49.790;18.972;2023-02-21T14:08:38;4.22;;;3.60;;
76477;SDS011;65309;49.790;18.972;2023-02-21T14:13:44;4.40;;;2.90;;
76477;SDS011;65309;49.790;18.972;2023-02-21T14:18:50;4.80;;;3.10;;
76477;SDS011;65309;49.790;18.972;2023-02-21T14:23:58;7.75;;;4.53;;
76477;SDS011;65309;49.790;18.972;2023-02-21T14:29:11;4.90;;;3.33;;
76477;SDS011;65309;49.790;18.972;2023-02-21T14:34:18;5.35;;;3.72;;
76477;SDS011;65309;49.790;18.972;2023-02-21T14:39:24;6.95;;;3.38;;
76477;SDS011;65309;49.790;18.972;2023-02-21T14:44:34;4.13;;;2.30;;
76477;SDS011;65309;49.790;18.972;2023-02-21T14:49:51;8.82;;;2.90;;
76477;SDS011;65309;49.790;18.972;2023-02-21T14:55:17;4.00;;;2.85;;
76477;SDS011;65309;49.790;18.972;2023-02-21T15:00:31;5.80;;;3.58;;
76477;SDS011;65309;49.790;18.972;2023-02-21T15:05:43;10.90;;;5.20;;
76477;SDS011;65309;49.790;18.972;2023-02-21T15:10:58;6.78;;;4.28;;
76477;SDS011;65309;49.790;18.972;2023-02-21T15:16:03;6.97;;;4.85;;
76477;SDS011;65309;49.790;18.972;2023-02-21T15:21:14;6.55;;;4.63;;
76477;SDS011;65309;49.790;18.972;2023-02-21T15:26:21;7.57;;;4.63;;
76477;SDS011;65309;49.790;18.972;2023-02-21T15:31:26;9.43;;;5.22;;
76477;SDS011;65309;49.790;18.972;2023-02-21T15:36:29;11.55;;;6.22;;
76477;SDS011;65309;49.790;18.972;2023-02-21T15:41:34;11.48;;;5.45;;
76477;SDS011;65309;49.790;18.972;2023-02-21T15:46:41;17.27;;;7.80;;
76477;SDS011;65309;49.790;18.972;2023-02-21T15:51:47;8.55;;;4.47;;
76477;SDS011;65309;49.790;18.972;2023-02-21T15:57:04;7.10;;;4.32;;
76477;SDS011;65309;49.790;18.972;2023-02-21T16:02:24;11.57;;;5.00;;
76477;SDS011;65309;49.790;18.972;2023-02-21T16:07:27;8.40;;;4.30;;
76477;SDS011;65309;49.790;18.972;2023-02-21T16:12:37;6.72;;;4.68;;
76477;SDS011;65309;49.790;18.972;2023-02-21T16:17:51;5.93;;;4.55;;
76477;SDS011;65309;49.790;18.972;2023-02-21T16:28:24;11.85;;;6.15;;
76477;SDS011;65309;49.790;18.972;2023-02-21T16:33:27;13.25;;;6.80;;
76477;SDS011;65309;49.790;18.972;2023-02-21T16:38:30;13.95;;;7.60;;
76477;SDS011;65309;49.790;18.972;2023-02-21T16:43:33;22.75;;;10.95;;
76477;SDS011;65309;49.790;18.972;2023-02-21T16:48:35;25.15;;;10.77;;
76477;SDS011;65309;49.790;18.972;2023-02-21T16:53:37;15.48;;;7.35;;
76477;SDS011;65309;49.790;18.972;2023-02-21T16:58:41;13.20;;;7.20;;
76477;SDS011;65309;49.790;18.972;2023-02-21T17:03:45;14.20;;;8.48;;
76477;SDS011;65309;49.790;18.972;2023-02-21T17:08:48;13.95;;;9.27;;
76477;SDS011;65309;49.790;18.972;2023-02-21T17:13:51;14.57;;;9.38;;
76477;SDS011;65309;49.790;18.972;2023-02-21T17:23:55;13.52;;;8.57;;
76477;SDS011;65309;49.790;18.972;2023-02-21T17:28:59;13.88;;;10.27;;
76477;SDS011;65309;49.790;18.972;2023-02-21T17:34:01;15.70;;;11.10;;
76477;SDS011;65309;49.790;18.972;2023-02-21T17:39:04;13.00;;;8.73;;
76477;SDS011;65309;49.790;18.972;2023-02-21T17:44:08;15.88;;;10.77;;
76477;SDS011;65309;49.790;18.972;2023-02-21T17:49:10;17.38;;;9.48;;
76477;SDS011;65309;49.790;18.972;2023-02-21T17:54:12;18.30;;;11.80;;
76477;SDS011;65309;49.790;18.972;2023-02-21T17:59:17;20.08;;;11.05;;
76477;SDS011;65309;49.790;18.972;2023-02-21T18:04:19;12.85;;;9.18;;
76477;SDS011;65309;49.790;18.972;2023-02-21T18:09:21;12.82;;;8.68;;
76477;SDS011;65309;49.790;18.972;2023-02-21T18:14:26;8.68;;;6.03;;
76477;SDS011;65309;49.790;18.972;2023-02-21T18:19:30;18.42;;;7.75;;
76477;SDS011;65309;49.790;18.972;2023-02-21T18:24:32;12.02;;;8.43;;
76477;SDS011;65309;49.790;18.972;2023-02-21T18:29:36;11.52;;;6.95;;
76477;SDS011;65309;49.790;18.972;2023-02-21T18:34:38;8.07;;;5.15;;
76477;SDS011;65309;49.790;18.972;2023-02-21T18:39:40;10.30;;;7.13;;
76477;SDS011;65309;49.790;18.972;2023-02-21T18:44:43;8.57;;;5.80;;
76477;SDS011;65309;49.790;18.972;2023-02-21T18:49:46;9.57;;;5.05;;
76477;SDS011;65309;49.790;18.972;2023-02-21T18:54:48;13.25;;;8.68;;
76477;SDS011;65309;49.790;18.972;2023-02-21T18:59:52;13.32;;;8.02;;
76477;SDS011;65309;49.790;18.972;2023-02-21T19:04:54;11.95;;;8.40;;
76477;SDS011;65309;49.790;18.972;2023-02-21T19:09:56;9.68;;;7.40;;
76477;SDS011;65309;49.790;18.972;2023-02-21T19:15:00;10.38;;;6.85;;
76477;SDS011;65309;49.790;18.972;2023-02-21T19:20:03;13.65;;;6.88;;
76477;SDS011;65309;49.790;18.972;2023-02-21T19:25:11;10.15;;;6.35;;
76477;SDS011;65309;49.790;18.972;2023-02-21T19:30:17;8.02;;;5.10;;
76477;SDS011;65309;49.790;18.972;2023-02-21T19:35:20;7.38;;;5.13;;
76477;SDS011;65309;49.790;18.972;2023-02-21T19:40:23;10.23;;;5.78;;
76477;SDS011;65309;49.790;18.972;2023-02-21T19:45:28;8.43;;;5.68;;
76477;SDS011;65309;49.790;18.972;2023-02-21T19:50:31;8.63;;;6.10;;
76477;SDS011;65309;49.790;18.972;2023-02-21T19:55:34;11.02;;;5.55;;
76477;SDS011;65309;49.790;18.972;2023-02-21T20:00:38;8.32;;;4.88;;
76477;SDS011;65309;49.790;18.972;2023-02-21T20:05:43;6.25;;;4.75;;
76477;SDS011;65309;49.790;18.972;2023-02-21T20:10:45;6.25;;;4.43;;
76477;SDS011;65309;49.790;18.972;2023-02-21T20:15:49;7.00;;;4.38;;
76477;SDS011;65309;49.790;18.972;2023-02-21T20:20:51;13.65;;;8.05;;
76477;SDS011;65309;49.790;18.972;2023-02-21T20:25:53;8.60;;;5.75;;
76477;SDS011;65309;49.790;18.972;2023-02-21T20:30:56;13.95;;;6.82;;
76477;SDS011;65309;49.790;18.972;2023-02-21T20:35:59;17.77;;;9.25;;
76477;SDS011;65309;49.790;18.972;2023-02-21T20:41:01;14.80;;;8.05;;
76477;SDS011;65309;49.790;18.972;2023-02-21T20:46:04;9.65;;;6.18;;
76477;SDS011;65309;49.790;18.972;2023-02-21T20:51:07;9.80;;;5.78;;
76477;SDS011;65309;49.790;18.972;2023-02-21T20:56:09;9.80;;;6.00;;
76477;SDS011;65309;49.790;18.972;2023-02-21T21:01:12;7.15;;;4.75;;
76477;SDS011;65309;49.790;18.972;2023-02-21T21:06:16;17.02;;;8.60;;
76477;SDS011;65309;49.790;18.972;2023-02-21T21:11:18;9.23;;;5.25;;
76477;SDS011;65309;49.790;18.972;2023-02-21T21:16:23;11.95;;;6.05;;
76477;SDS011;65309;49.790;18.972;2023-02-21T21:21:28;5.63;;;2.88;;
76477;SDS011;65309;49.790;18.972;2023-02-21T21:26:31;3.13;;;2.00;;
76477;SDS011;65309;49.790;18.972;2023-02-21T21:31:35;7.28;;;3.28;;
76477;SDS011;65309;49.790;18.972;2023-02-21T21:36:37;9.82;;;2.92;;
76477;SDS011;65309;49.790;18.972;2023-02-21T21:41:40;9.05;;;2.42;;
76477;SDS011;65309;49.790;18.972;2023-02-21T21:46:48;7.60;;;3.75;;
76477;SDS011;65309;49.790;18.972;2023-02-21T21:51:51;9.32;;;3.97;;
76477;SDS011;65309;49.790;18.972;2023-02-21T21:56:57;14.15;;;4.47;;
76477;SDS011;65309;49.790;18.972;2023-02-21T22:02:01;9.80;;;3.78;;
76477;SDS011;65309;49.790;18.972;2023-02-21T22:07:03;11.07;;;5.07;;
76477;SDS011;65309;49.790;18.972;2023-02-21T22:12:06;11.48;;;5.82;;
76477;SDS011;65309;49.790;18.972;2023-02-21T22:17:10;9.27;;;4.55;;
76477;SDS011;65309;49.790;18.972;2023-02-21T22:22:12;13.95;;;4.75;;
76477;SDS011;65309;49.790;18.972;2023-02-21T22:27:16;8.15;;;3.33;;
76477;SDS011;65309;49.790;18.972;2023-02-21T22:32:19;12.00;;;3.58;;
76477;SDS011;65309;49.790;18.972;2023-02-21T22:37:22;17.85;;;4.82;;
76477;SDS011;65309;49.790;18.972;2023-02-21T22:42:24;8.40;;;3.38;;
76477;SDS011;65309;49.790;18.972;2023-02-21T22:47:27;5.60;;;3.47;;
76477;SDS011;65309;49.790;18.972;2023-02-21T22:52:29;12.48;;;3.97;;
76477;SDS011;65309;49.790;18.972;2023-02-21T23:02:37;7.95;;;4.18;;
76477;SDS011;65309;49.790;18.972;2023-02-21T23:07:39;14.07;;;3.78;;
76477;SDS011;65309;49.790;18.972;2023-02-21T23:12:42;6.20;;;2.67;;
76477;SDS011;65309;49.790;18.972;2023-02-21T23:17:47;5.57;;;2.38;;
76477;SDS011;65309;49.790;18.972;2023-02-21T23:22:51;8.13;;;3.47;;
76477;SDS011;65309;49.790;18.972;2023-02-21T23:27:55;5.97;;;2.65;;
76477;SDS011;65309;49.790;18.972;2023-02-21T23:32:59;8.90;;;2.95;;
76477;SDS011;65309;49.790;18.972;2023-02-21T23:38:01;6.60;;;2.88;;
76477;SDS011;65309;49.790;18.972;2023-02-21T23:43:03;16.38;;;3.25;;
76477;SDS011;65309;49.790;18.972;2023-02-21T23:48:09;8.07;;;2.75;;
76477;SDS011;65309;49.790;18.972;2023-02-21T23:53:17;8.63;;;3.58;;
76477;SDS011;65309;49.790;18.972;2023-02-21T23:58:20;8.40;;;2.75;;
